Terminal Aerodrome Forecast
Issued by NWS

Home | Current Version | Previous Version | Graphics & Text | Print | Product List | Glossary On
Versions: 1 2 3 4 5 6 7 8 9 10 11 12 13 14 15
000
FTUS41 KCLE 212324
TAFFDY
TAF
KFDY 212324Z 2200/2224 VRB03KT P6SM FEW200
     FM221100 00000KT 4SM BR SCT200
     FM221300 VRB03KT P6SM SCT200=

USA.gov is the U.S. government's official web portal to all federal, state and local government web resources and services.